sensor_id;sensor_type;location;lat;lon;timestamp;pressure;altitude;pressure_sealevel;temperature;humidity
40155;BME280;25875;48.202;16.334;2023-05-09T00:02:04;99782.59;;;11.74;43.60
40155;BME280;25875;48.202;16.334;2023-05-09T00:04:31;99821.13;;;11.98;43.69
40155;BME280;25875;48.202;16.334;2023-05-09T00:06:58;99828.47;;;11.93;43.79
40155;BME280;25875;48.202;16.334;2023-05-09T00:09:25;99785.56;;;11.68;43.94
40155;BME280;25875;48.202;16.334;2023-05-09T00:11:52;99784.63;;;11.69;43.85
40155;BME280;25875;48.202;16.334;2023-05-09T00:14:20;99827.84;;;11.88;44.01
40155;BME280;25875;48.202;16.334;2023-05-09T00:16:46;99816.28;;;11.89;44.03
40155;BME280;25875;48.202;16.334;2023-05-09T00:19:13;99781.19;;;11.67;44.02
40155;BME280;25875;48.202;16.334;2023-05-09T00:21:40;99812.78;;;11.88;44.07
40155;BME280;25875;48.202;16.334;2023-05-09T00:24:07;99810.13;;;11.88;44.13
40155;BME280;25875;48.202;16.334;2023-05-09T00:26:33;99811.06;;;11.87;44.19
40155;BME280;25875;48.202;16.334;2023-05-09T00:29:00;99808.56;;;11.84;44.33
40155;BME280;25875;48.202;16.334;2023-05-09T00:31:28;99760.53;;;11.56;44.52
40155;BME280;25875;48.202;16.334;2023-05-09T00:33:55;99801.78;;;11.79;44.17
40155;BME280;25875;48.202;16.334;2023-05-09T00:36:22;99722.78;;;11.34;44.20
40155;BME280;25875;48.202;16.334;2023-05-09T00:38:49;99804.59;;;11.76;44.41
40155;BME280;25875;48.202;16.334;2023-05-09T00:41:16;99800.25;;;11.75;44.50
40155;BME280;25875;48.202;16.334;2023-05-09T00:43:43;99797.59;;;11.75;44.52
40155;BME280;25875;48.202;16.334;2023-05-09T00:46:10;99617.50;;;10.67;44.68
40155;BME280;25875;48.202;16.334;2023-05-09T00:48:38;99793.44;;;11.69;44.57
40155;BME280;25875;48.202;16.334;2023-05-09T00:51:05;99791.66;;;11.70;44.58
40155;BME280;25875;48.202;16.334;2023-05-09T00:53:32;99800.56;;;11.69;44.75
40155;BME280;25875;48.202;16.334;2023-05-09T00:55:59;99797.81;;;11.70;44.82
40155;BME280;25875;48.202;16.334;2023-05-09T00:58:27;99789.84;;;11.70;44.60
40155;BME280;25875;48.202;16.334;2023-05-09T01:00:54;99784.56;;;11.70;44.75
40155;BME280;25875;48.202;16.334;2023-05-09T01:03:22;99790.97;;;11.66;44.61
40155;BME280;25875;48.202;16.334;2023-05-09T01:05:54;99783.31;;;11.60;45.27
40155;BME280;25875;48.202;16.334;2023-05-09T01:08:33;99787.69;;;11.61;45.21
40155;BME280;25875;48.202;16.334;2023-05-09T01:11:08;99740.59;;;11.32;45.11
40155;BME280;25875;48.202;16.334;2023-05-09T01:13:43;99784.25;;;11.59;45.10
40155;BME280;25875;48.202;16.334;2023-05-09T01:16:17;99778.94;;;11.59;45.00
40155;BME280;25875;48.202;16.334;2023-05-09T01:18:49;99773.63;;;11.59;45.29
40155;BME280;25875;48.202;16.334;2023-05-09T01:21:22;99723.19;;;11.26;45.14
40155;BME280;25875;48.202;16.334;2023-05-09T01:24:12;99775.69;;;11.54;45.95
40155;BME280;25875;48.202;16.334;2023-05-09T01:26:55;99775.06;;;11.49;45.67
40155;BME280;25875;48.202;16.334;2023-05-09T01:29:40;99687.88;;;10.91;46.20
40155;BME280;25875;48.202;16.334;2023-05-09T01:32:13;99781.47;;;11.45;45.53
40155;BME280;25875;48.202;16.334;2023-05-09T01:34:42;99736.84;;;11.18;45.33
40155;BME280;25875;48.202;16.334;2023-05-09T01:37:12;99786.00;;;11.43;45.42
40155;BME280;25875;48.202;16.334;2023-05-09T01:39:39;99779.06;;;11.40;45.32
40155;BME280;25875;48.202;16.334;2023-05-09T01:42:08;99774.84;;;11.36;45.74
40155;BME280;25875;48.202;16.334;2023-05-09T01:44:40;99771.31;;;11.36;45.74
40155;BME280;25875;48.202;16.334;2023-05-09T01:47:08;99725.06;;;11.07;45.76
40155;BME280;25875;48.202;16.334;2023-05-09T01:49:36;99765.25;;;11.34;45.76
40155;BME280;25875;48.202;16.334;2023-05-09T01:52:06;99767.91;;;11.34;45.93
40155;BME280;25875;48.202;16.334;2023-05-09T01:54:34;99767.13;;;11.32;45.83
40155;BME280;25875;48.202;16.334;2023-05-09T01:57:03;99770.69;;;11.31;45.92
40155;BME280;25875;48.202;16.334;2023-05-09T01:59:32;99773.34;;;11.31;45.83
40155;BME280;25875;48.202;16.334;2023-05-09T02:02:02;99715.63;;;11.01;45.97
40155;BME280;25875;48.202;16.334;2023-05-09T02:04:29;99653.00;;;10.64;45.91
40155;BME280;25875;48.202;16.334;2023-05-09T02:06:56;99718.44;;;10.98;46.02
40155;BME280;25875;48.202;16.334;2023-05-09T02:09:24;99770.09;;;11.26;46.06
40155;BME280;25875;48.202;16.334;2023-05-09T02:11:52;99727.34;;;10.97;46.16
40155;BME280;25875;48.202;16.334;2023-05-09T02:14:19;99694.66;;;10.79;46.02
40155;BME280;25875;48.202;16.334;2023-05-09T02:16:46;99772.91;;;11.22;46.19
40155;BME280;25875;48.202;16.334;2023-05-09T02:19:14;99731.00;;;10.95;46.17
40155;BME280;25875;48.202;16.334;2023-05-09T02:21:42;99774.69;;;11.22;46.22
40155;BME280;25875;48.202;16.334;2023-05-09T02:24:09;99725.06;;;10.89;46.36
40155;BME280;25875;48.202;16.334;2023-05-09T02:26:36;99772.34;;;11.16;46.35
40155;BME280;25875;48.202;16.334;2023-05-09T02:29:04;99745.66;;;11.02;46.66
40155;BME280;25875;48.202;16.334;2023-05-09T02:31:33;99756.97;;;11.05;46.47
40155;BME280;25875;48.202;16.334;2023-05-09T02:34:01;99686.34;;;10.68;46.89
40155;BME280;25875;48.202;16.334;2023-05-09T02:36:31;99771.09;;;11.06;47.02
40155;BME280;25875;48.202;16.334;2023-05-09T02:38:58;99772.03;;;11.05;46.88
40155;BME280;25875;48.202;16.334;2023-05-09T02:41:25;99770.25;;;11.05;46.99
40155;BME280;25875;48.202;16.334;2023-05-09T02:43:52;99772.25;;;11.00;47.21
40155;BME280;25875;48.202;16.334;2023-05-09T02:46:19;99719.03;;;10.69;47.29
40155;BME280;25875;48.202;16.334;2023-05-09T02:48:46;99739.81;;;10.78;47.40
40155;BME280;25875;48.202;16.334;2023-05-09T02:51:13;99771.88;;;10.90;47.52
40155;BME280;25875;48.202;16.334;2023-05-09T02:53:41;99768.22;;;10.93;47.50
40155;BME280;25875;48.202;16.334;2023-05-09T02:56:08;99726.34;;;10.64;47.49
40155;BME280;25875;48.202;16.334;2023-05-09T02:58:35;99763.84;;;10.92;47.61
40155;BME280;25875;48.202;16.334;2023-05-09T03:01:02;99666.44;;;10.25;47.61
40155;BME280;25875;48.202;16.334;2023-05-09T03:03:29;99770.06;;;10.91;47.48
40155;BME280;25875;48.202;16.334;2023-05-09T03:05:58;99770.06;;;10.91;47.59
40155;BME280;25875;48.202;16.334;2023-05-09T03:08:25;99765.84;;;10.87;47.58
40155;BME280;25875;48.202;16.334;2023-05-09T03:10:53;99725.00;;;10.55;47.89
40155;BME280;25875;48.202;16.334;2023-05-09T03:13:20;99717.50;;;10.46;48.04
40155;BME280;25875;48.202;16.334;2023-05-09T03:15:46;99770.31;;;10.68;48.25
40155;BME280;25875;48.202;16.334;2023-05-09T03:18:13;99766.97;;;10.64;48.22
40155;BME280;25875;48.202;16.334;2023-05-09T03:20:40;99767.41;;;10.55;48.57
40155;BME280;25875;48.202;16.334;2023-05-09T03:23:07;99757.03;;;10.50;48.54
40155;BME280;25875;48.202;16.334;2023-05-09T03:25:34;99554.75;;;9.24;48.33
40155;BME280;25875;48.202;16.334;2023-05-09T03:28:02;99766.06;;;10.46;48.49
40155;BME280;25875;48.202;16.334;2023-05-09T03:30:29;99759.03;;;10.45;48.58
40155;BME280;25875;48.202;16.334;2023-05-09T03:32:56;99763.41;;;10.46;48.45
40155;BME280;25875;48.202;16.334;2023-05-09T03:35:23;99769.78;;;10.42;48.67
40155;BME280;25875;48.202;16.334;2023-05-09T03:37:50;99670.63;;;9.74;48.87
40155;BME280;25875;48.202;16.334;2023-05-09T03:40:16;99779.97;;;10.33;48.78
40155;BME280;25875;48.202;16.334;2023-05-09T03:42:43;99735.31;;;10.06;49.07
40155;BME280;25875;48.202;16.334;2023-05-09T03:45:12;99723.28;;;9.99;49.28
40155;BME280;25875;48.202;16.334;2023-05-09T03:47:39;99769.25;;;10.17;49.24
40155;BME280;25875;48.202;16.334;2023-05-09T03:50:07;99770.59;;;10.07;49.58
40155;BME280;25875;48.202;16.334;2023-05-09T03:52:33;99727.16;;;9.73;49.61
40155;BME280;25875;48.202;16.334;2023-05-09T03:55:01;99775.81;;;9.89;49.89
40155;BME280;25875;48.202;16.334;2023-05-09T03:57:28;99776.09;;;9.83;50.08
40155;BME280;25875;48.202;16.334;2023-05-09T03:59:55;99774.44;;;9.81;50.06
40155;BME280;25875;48.202;16.334;2023-05-09T04:02:23;99728.91;;;9.54;50.20
40155;BME280;25875;48.202;16.334;2023-05-09T04:04:50;99774.38;;;9.82;50.04
40155;BME280;25875;48.202;16.334;2023-05-09T04:07:17;99760.53;;;9.57;50.12
40155;BME280;25875;48.202;16.334;2023-05-09T04:09:45;99735.13;;;9.53;50.21
40155;BME280;25875;48.202;16.334;2023-05-09T04:12:11;99777.88;;;9.83;50.08
40155;BME280;25875;48.202;16.334;2023-05-09T04:14:38;99754.75;;;9.68;50.09
40155;BME280;25875;48.202;16.334;2023-05-09T04:17:05;99782.25;;;9.84;50.12
40155;BME280;25875;48.202;16.334;2023-05-09T04:19:33;99728.06;;;9.53;50.20
40155;BME280;25875;48.202;16.334;2023-05-09T04:22:00;99775.16;;;9.84;50.23
40155;BME280;25875;48.202;16.334;2023-05-09T04:24:27;99733.06;;;9.59;50.09
40155;BME280;25875;48.202;16.334;2023-05-09T04:26:53;99780.97;;;9.92;49.97
40155;BME280;25875;48.202;16.334;2023-05-09T04:29:20;99778.03;;;9.99;50.00
40155;BME280;25875;48.202;16.334;2023-05-09T04:31:47;99735.16;;;9.72;50.07
40155;BME280;25875;48.202;16.334;2023-05-09T04:34:14;99719.84;;;9.59;50.24
40155;BME280;25875;48.202;16.334;2023-05-09T04:36:42;99726.34;;;9.52;50.48
40155;BME280;25875;48.202;16.334;2023-05-09T04:39:08;99782.53;;;9.78;50.55
40155;BME280;25875;48.202;16.334;2023-05-09T04:41:35;99719.66;;;9.44;50.48
40155;BME280;25875;48.202;16.334;2023-05-09T04:44:02;99776.94;;;9.84;50.43
40155;BME280;25875;48.202;16.334;2023-05-09T04:46:29;99782.25;;;9.84;50.53
40155;BME280;25875;48.202;16.334;2023-05-09T04:48:56;99774.44;;;9.81;50.49
40155;BME280;25875;48.202;16.334;2023-05-09T04:51:22;99776.88;;;9.85;50.58
40155;BME280;25875;48.202;16.334;2023-05-09T04:53:50;99736.44;;;9.63;50.54
40155;BME280;25875;48.202;16.334;2023-05-09T04:56:17;99738.16;;;9.64;50.44
40155;BME280;25875;48.202;16.334;2023-05-09T04:58:44;99784.53;;;9.91;50.53
40155;BME280;25875;48.202;16.334;2023-05-09T05:01:11;99731.22;;;9.61;50.49
40155;BME280;25875;48.202;16.334;2023-05-09T05:03:38;99586.69;;;8.81;50.30
40155;BME280;25875;48.202;16.334;2023-05-09T05:06:05;99768.44;;;9.96;50.26
40155;BME280;25875;48.202;16.334;2023-05-09T05:08:32;99732.44;;;9.73;50.20
40155;BME280;25875;48.202;16.334;2023-05-09T05:11:00;99707.47;;;9.60;50.12
40155;BME280;25875;48.202;16.334;2023-05-09T05:13:27;99777.09;;;10.00;50.11
40155;BME280;25875;48.202;16.334;2023-05-09T05:15:53;99770.88;;;10.01;49.97
40155;BME280;25875;48.202;16.334;2023-05-09T05:18:21;99778.63;;;10.05;49.91
40155;BME280;25875;48.202;16.334;2023-05-09T05:20:47;99779.25;;;10.10;49.76
40155;BME280;25875;48.202;16.334;2023-05-09T05:23:14;99734.59;;;9.84;49.66
40155;BME280;25875;48.202;16.334;2023-05-09T05:25:41;99675.63;;;9.43;49.75
40155;BME280;25875;48.202;16.334;2023-05-09T05:28:09;99740.81;;;9.83;49.57
40155;BME280;25875;48.202;16.334;2023-05-09T05:30:36;99777.53;;;10.09;49.47
40155;BME280;25875;48.202;16.334;2023-05-09T05:33:02;99777.53;;;10.09;49.46
40155;BME280;25875;48.202;16.334;2023-05-09T05:35:29;99776.91;;;10.04;49.33
40155;BME280;25875;48.202;16.334;2023-05-09T05:37:56;99699.50;;;9.41;49.35
40155;BME280;25875;48.202;16.334;2023-05-09T05:40:22;99727.16;;;9.73;49.08
40155;BME280;25875;48.202;16.334;2023-05-09T05:42:49;99763.94;;;9.98;49.33
40155;BME280;25875;48.202;16.334;2023-05-09T05:45:17;99725.28;;;9.75;49.23
40155;BME280;25875;48.202;16.334;2023-05-09T05:47:44;99771.53;;;10.06;49.35
40155;BME280;25875;48.202;16.334;2023-05-09T05:50:11;99614.66;;;9.05;49.07
40155;BME280;25875;48.202;16.334;2023-05-09T05:52:38;99770.66;;;10.05;49.01
40155;BME280;25875;48.202;16.334;2023-05-09T05:55:06;99763.72;;;10.03;49.05
40155;BME280;25875;48.202;16.334;2023-05-09T05:57:33;99768.09;;;10.04;49.21
40155;BME280;25875;48.202;16.334;2023-05-09T06:00:02;99767.03;;;10.08;48.97
40155;BME280;25875;48.202;16.334;2023-05-09T06:02:32;99733.94;;;9.98;49.23
40155;BME280;25875;48.202;16.334;2023-05-09T06:04:58;99720.22;;;9.89;48.84
40155;BME280;25875;48.202;16.334;2023-05-09T06:07:26;99772.66;;;10.19;48.85
40155;BME280;25875;48.202;16.334;2023-05-09T06:09:52;99766.31;;;10.23;49.26
40155;BME280;25875;48.202;16.334;2023-05-09T06:12:19;99767.94;;;10.25;48.84
40155;BME280;25875;48.202;16.334;2023-05-09T06:14:46;99699.19;;;9.86;48.69
40155;BME280;25875;48.202;16.334;2023-05-09T06:17:13;99766.16;;;10.26;48.79
40155;BME280;25875;48.202;16.334;2023-05-09T06:19:41;99757.13;;;10.30;48.87
40155;BME280;25875;48.202;16.334;2023-05-09T06:22:08;99751.19;;;10.25;49.12
40155;BME280;25875;48.202;16.334;2023-05-09T06:24:34;99710.84;;;10.01;48.91
40155;BME280;25875;48.202;16.334;2023-05-09T06:27:01;99757.06;;;10.32;48.96
40155;BME280;25875;48.202;16.334;2023-05-09T06:29:28;99712.84;;;10.15;48.67
40155;BME280;25875;48.202;16.334;2023-05-09T06:31:54;99702.94;;;10.18;48.63
40155;BME280;25875;48.202;16.334;2023-05-09T06:34:21;99762.88;;;10.57;48.57
40155;BME280;25875;48.202;16.334;2023-05-09T06:36:49;99755.50;;;10.64;48.26
40155;BME280;25875;48.202;16.334;2023-05-09T06:39:16;99747.88;;;10.75;48.10
40155;BME280;25875;48.202;16.334;2023-05-09T06:41:42;99743.72;;;10.88;48.01
40155;BME280;25875;48.202;16.334;2023-05-09T06:44:09;99746.59;;;11.01;47.77
40155;BME280;25875;48.202;16.334;2023-05-09T06:46:36;99709.00;;;10.93;47.65
40155;BME280;25875;48.202;16.334;2023-05-09T06:49:02;99751.28;;;11.30;47.27
40155;BME280;25875;48.202;16.334;2023-05-09T06:51:30;99743.84;;;11.37;47.22
40155;BME280;25875;48.202;16.334;2023-05-09T06:53:58;99746.81;;;11.48;47.25
40155;BME280;25875;48.202;16.334;2023-05-09T06:56:25;99737.16;;;11.63;46.93
40155;BME280;25875;48.202;16.334;2023-05-09T06:58:52;99736.69;;;11.72;46.73
40155;BME280;25875;48.202;16.334;2023-05-09T07:01:18;99731.84;;;11.96;46.37
40155;BME280;25875;48.202;16.334;2023-05-09T07:03:45;99723.06;;;12.27;45.60
40155;BME280;25875;48.202;16.334;2023-05-09T07:06:12;99724.97;;;12.40;45.47
40155;BME280;25875;48.202;16.334;2023-05-09T07:08:40;99723.41;;;12.52;45.41
40155;BME280;25875;48.202;16.334;2023-05-09T07:11:08;99659.56;;;12.22;45.01
40155;BME280;25875;48.202;16.334;2023-05-09T07:13:34;99725.84;;;12.71;44.96
40155;BME280;25875;48.202;16.334;2023-05-09T07:16:01;99676.13;;;12.57;44.72
40155;BME280;25875;48.202;16.334;2023-05-09T07:18:28;99681.09;;;12.63;44.63
40155;BME280;25875;48.202;16.334;2023-05-09T07:20:55;99720.72;;;12.98;44.60
40155;BME280;25875;48.202;16.334;2023-05-09T07:23:22;99721.13;;;13.06;44.57
40155;BME280;25875;48.202;16.334;2023-05-09T07:25:54;99712.06;;;12.94;44.10
40155;BME280;25875;48.202;16.334;2023-05-09T07:28:23;99677.66;;;12.91;44.61
40155;BME280;25875;48.202;16.334;2023-05-09T07:30:50;99714.59;;;13.26;44.33
40155;BME280;25875;48.202;16.334;2023-05-09T07:33:17;99723.31;;;13.58;43.62
40155;BME280;25875;48.202;16.334;2023-05-09T07:35:43;99719.91;;;13.56;43.50
40155;BME280;25875;48.202;16.334;2023-05-09T07:38:10;99709.16;;;13.43;43.86
40155;BME280;25875;48.202;16.334;2023-05-09T07:40:39;99706.81;;;13.37;44.10
40155;BME280;25875;48.202;16.334;2023-05-09T07:43:05;99671.53;;;13.19;43.89
40155;BME280;25875;48.202;16.334;2023-05-09T07:45:34;99698.88;;;13.65;43.62
40155;BME280;25875;48.202;16.334;2023-05-09T07:48:00;99698.31;;;13.74;43.64
40155;BME280;25875;48.202;16.334;2023-05-09T07:50:27;99691.72;;;13.94;43.26
40155;BME280;25875;48.202;16.334;2023-05-09T07:52:54;99641.91;;;13.68;42.88
40155;BME280;25875;48.202;16.334;2023-05-09T07:55:21;99658.34;;;13.74;43.20
40155;BME280;25875;48.202;16.334;2023-05-09T07:57:48;99642.28;;;13.76;42.73
40155;BME280;25875;48.202;16.334;2023-05-09T08:00:15;99693.50;;;14.08;42.48
40155;BME280;25875;48.202;16.334;2023-05-09T08:02:44;99678.06;;;14.13;42.97
40155;BME280;25875;48.202;16.334;2023-05-09T08:05:10;99643.66;;;13.96;42.73
40155;BME280;25875;48.202;16.334;2023-05-09T08:07:37;99669.78;;;14.18;42.80
40155;BME280;25875;48.202;16.334;2023-05-09T08:10:05;99629.19;;;14.00;42.84
40155;BME280;25875;48.202;16.334;2023-05-09T08:12:32;99680.25;;;14.21;42.47
40155;BME280;25875;48.202;16.334;2023-05-09T08:14:59;99632.25;;;13.94;42.96
40155;BME280;25875;48.202;16.334;2023-05-09T08:17:26;99639.84;;;14.00;42.83
40155;BME280;25875;48.202;16.334;2023-05-09T08:19:54;99675.91;;;14.32;42.58
40155;BME280;25875;48.202;16.334;2023-05-09T08:22:20;99612.00;;;14.18;42.17
40155;BME280;25875;48.202;16.334;2023-05-09T08:24:47;99623.72;;;14.55;42.31
40155;BME280;25875;48.202;16.334;2023-05-09T08:27:14;99657.28;;;14.99;41.69
40155;BME280;25875;48.202;16.334;2023-05-09T08:29:41;99662.19;;;15.18;41.77
40155;BME280;25875;48.202;16.334;2023-05-09T08:32:08;99612.22;;;15.07;41.33
40155;BME280;25875;48.202;16.334;2023-05-09T08:34:35;99629.84;;;15.10;40.99
40155;BME280;25875;48.202;16.334;2023-05-09T08:37:03;99619.91;;;14.86;40.75
40155;BME280;25875;48.202;16.334;2023-05-09T08:39:30;99654.63;;;15.12;41.78
40155;BME280;25875;48.202;16.334;2023-05-09T08:41:59;99529.38;;;14.31;41.28
40155;BME280;25875;48.202;16.334;2023-05-09T08:44:29;99660.69;;;15.01;41.45
40155;BME280;25875;48.202;16.334;2023-05-09T08:46:58;99667.09;;;15.11;41.77
40155;BME280;25875;48.202;16.334;2023-05-09T08:49:25;99601.00;;;14.89;41.37
40155;BME280;25875;48.202;16.334;2023-05-09T08:51:53;99553.91;;;14.63;40.97
40155;BME280;25875;48.202;16.334;2023-05-09T08:54:21;99603.16;;;14.97;41.29
40155;BME280;25875;48.202;16.334;2023-05-09T08:56:49;99644.16;;;15.21;41.52
40155;BME280;25875;48.202;16.334;2023-05-09T08:59:17;99645.31;;;15.04;41.66
40155;BME280;25875;48.202;16.334;2023-05-09T09:01:44;99644.13;;;14.96;41.72
40155;BME280;25875;48.202;16.334;2023-05-09T09:04:11;99637.41;;;14.90;41.76
40155;BME280;25875;48.202;16.334;2023-05-09T09:06:38;99467.38;;;14.02;41.82
40155;BME280;25875;48.202;16.334;2023-05-09T09:09:07;99593.84;;;14.90;41.83
40155;BME280;25875;48.202;16.334;2023-05-09T09:11:36;99629.19;;;15.31;41.30
40155;BME280;25875;48.202;16.334;2023-05-09T09:14:06;99624.28;;;15.38;41.04
40155;BME280;25875;48.202;16.334;2023-05-09T09:16:36;99599.63;;;15.22;40.94
40155;BME280;25875;48.202;16.334;2023-05-09T09:19:05;99581.56;;;15.25;41.09
40155;BME280;25875;48.202;16.334;2023-05-09T09:21:35;99618.91;;;15.63;41.32
40155;BME280;25875;48.202;16.334;2023-05-09T09:24:02;99611.19;;;15.84;40.56
40155;BME280;25875;48.202;16.334;2023-05-09T09:26:30;99587.16;;;15.71;40.75
40155;BME280;25875;48.202;16.334;2023-05-09T09:28:58;99610.06;;;15.99;40.30
40155;BME280;25875;48.202;16.334;2023-05-09T09:31:29;99624.56;;;16.08;39.89
40155;BME280;25875;48.202;16.334;2023-05-09T09:34:00;99621.50;;;16.01;40.21
40155;BME280;25875;48.202;16.334;2023-05-09T09:36:28;99628.44;;;16.04;40.39
40155;BME280;25875;48.202;16.334;2023-05-09T09:38:58;99577.75;;;15.79;40.35
40155;BME280;25875;48.202;16.334;2023-05-09T09:41:29;99604.81;;;15.98;40.22
40155;BME280;25875;48.202;16.334;2023-05-09T09:43:58;99537.59;;;15.67;40.29
40155;BME280;25875;48.202;16.334;2023-05-09T09:46:39;99570.75;;;15.89;39.25
40155;BME280;25875;48.202;16.334;2023-05-09T09:49:08;99505.13;;;15.48;40.27
40155;BME280;25875;48.202;16.334;2023-05-09T09:51:35;99551.53;;;16.08;40.19
40155;BME280;25875;48.202;16.334;2023-05-09T09:54:01;99598.59;;;16.45;40.14
40155;BME280;25875;48.202;16.334;2023-05-09T09:56:42;99600.50;;;16.32;38.96
40155;BME280;25875;48.202;16.334;2023-05-09T09:59:13;99468.53;;;15.37;40.36
40155;BME280;25875;48.202;16.334;2023-05-09T10:01:53;99594.38;;;16.19;39.66
40155;BME280;25875;48.202;16.334;2023-05-09T10:04:20;99559.72;;;15.93;40.01
40155;BME280;25875;48.202;16.334;2023-05-09T10:06:51;99593.78;;;16.26;39.48
40155;BME280;25875;48.202;16.334;2023-05-09T10:09:19;99592.88;;;16.39;39.87
40155;BME280;25875;48.202;16.334;2023-05-09T10:11:48;99522.50;;;16.14;39.75
40155;BME280;25875;48.202;16.334;2023-05-09T10:14:17;99542.41;;;16.34;39.71
40155;BME280;25875;48.202;16.334;2023-05-09T10:16:46;99518.56;;;16.31;39.58
40155;BME280;25875;48.202;16.334;2023-05-09T10:19:16;99582.66;;;16.67;39.62
40155;BME280;25875;48.202;16.334;2023-05-09T10:21:47;99581.28;;;16.62;39.70
40155;BME280;25875;48.202;16.334;2023-05-09T10:24:17;99565.94;;;16.64;39.80
40155;BME280;25875;48.202;16.334;2023-05-09T10:26:48;99509.94;;;16.39;39.62
40155;BME280;25875;48.202;16.334;2023-05-09T10:29:20;99542.34;;;16.58;39.52
40155;BME280;25875;48.202;16.334;2023-05-09T10:31:53;99568.69;;;16.75;39.34
40155;BME280;25875;48.202;16.334;2023-05-09T10:34:21;99556.28;;;16.74;39.36
40155;BME280;25875;48.202;16.334;2023-05-09T10:36:51;99561.66;;;16.85;39.90
40155;BME280;25875;48.202;16.334;2023-05-09T10:39:21;99555.09;;;16.89;39.82
40155;BME280;25875;48.202;16.334;2023-05-09T10:41:49;99560.44;;;16.89;39.30
40155;BME280;25875;48.202;16.334;2023-05-09T10:44:17;99553.88;;;16.82;39.51
40155;BME280;25875;48.202;16.334;2023-05-09T10:46:45;99537.81;;;16.82;39.74
40155;BME280;25875;48.202;16.334;2023-05-09T10:49:12;99347.06;;;15.78;39.87
40155;BME280;25875;48.202;16.334;2023-05-09T10:51:39;99529.19;;;17.01;39.80
40155;BME280;25875;48.202;16.334;2023-05-09T10:54:12;99522.13;;;17.11;39.24
40155;BME280;25875;48.202;16.334;2023-05-09T10:56:39;99518.94;;;17.17;39.47
40155;BME280;25875;48.202;16.334;2023-05-09T10:59:34;99555.72;;;17.15;38.37
40155;BME280;25875;48.202;16.334;2023-05-09T11:02:02;99538.06;;;17.02;39.33
40155;BME280;25875;48.202;16.334;2023-05-09T11:04:30;99495.16;;;16.57;39.32
40155;BME280;25875;48.202;16.334;2023-05-09T11:06:58;99522.56;;;16.72;40.10
40155;BME280;25875;48.202;16.334;2023-05-09T11:09:30;99534.16;;;16.83;40.10
40155;BME280;25875;48.202;16.334;2023-05-09T11:12:00;99516.16;;;16.96;39.79
40155;BME280;25875;48.202;16.334;2023-05-09T11:14:39;99510.56;;;17.11;39.13
40155;BME280;25875;48.202;16.334;2023-05-09T11:17:08;99520.78;;;17.17;39.36
40155;BME280;25875;48.202;16.334;2023-05-09T11:19:37;99502.75;;;17.19;39.18
40155;BME280;25875;48.202;16.334;2023-05-09T11:22:14;99421.13;;;16.80;38.75
40155;BME280;25875;48.202;16.334;2023-05-09T11:24:45;99503.38;;;17.11;38.79
40155;BME280;25875;48.202;16.334;2023-05-09T11:27:18;99512.25;;;17.00;39.65
40155;BME280;25875;48.202;16.334;2023-05-09T11:29:50;99500.69;;;17.00;39.12
40155;BME280;25875;48.202;16.334;2023-05-09T11:32:17;99501.19;;;16.94;39.66
40155;BME280;25875;48.202;16.334;2023-05-09T11:34:44;99462.63;;;16.74;39.38
40155;BME280;25875;48.202;16.334;2023-05-09T11:37:13;99497.91;;;17.02;39.78
40155;BME280;25875;48.202;16.334;2023-05-09T11:39:55;99456.78;;;16.80;38.85
40155;BME280;25875;48.202;16.334;2023-05-09T11:42:23;99485.72;;;17.09;39.58
40155;BME280;25875;48.202;16.334;2023-05-09T11:44:52;99479.16;;;17.13;39.38
40155;BME280;25875;48.202;16.334;2023-05-09T11:47:20;99499.34;;;17.06;39.38
40155;BME280;25875;48.202;16.334;2023-05-09T11:49:47;99445.56;;;16.75;39.60
40155;BME280;25875;48.202;16.334;2023-05-09T11:52:14;99487.69;;;16.95;38.84
40155;BME280;25875;48.202;16.334;2023-05-09T11:54:41;99485.00;;;16.84;39.27
40155;BME280;25875;48.202;16.334;2023-05-09T11:57:08;99477.34;;;16.80;39.87
40155;BME280;25875;48.202;16.334;2023-05-09T11:59:35;99420.00;;;16.60;39.26
40155;BME280;25875;48.202;16.334;2023-05-09T12:02:05;99472.47;;;16.85;39.29
40155;BME280;25875;48.202;16.334;2023-05-09T12:04:32;99432.94;;;16.66;39.62
40155;BME280;25875;48.202;16.334;2023-05-09T12:07:00;99465.91;;;16.89;39.46
40155;BME280;25875;48.202;16.334;2023-05-09T12:09:29;99471.75;;;16.83;39.42
40155;BME280;25875;48.202;16.334;2023-05-09T12:11:56;99460.41;;;16.79;39.55
40155;BME280;25875;48.202;16.334;2023-05-09T12:14:27;99458.34;;;16.72;39.51
40155;BME280;25875;48.202;16.334;2023-05-09T12:16:55;99452.28;;;16.70;39.44
40155;BME280;25875;48.202;16.334;2023-05-09T12:19:24;99453.13;;;16.70;39.96
40155;BME280;25875;48.202;16.334;2023-05-09T12:21:54;99457.47;;;16.60;39.25
40155;BME280;25875;48.202;16.334;2023-05-09T12:24:23;99445.06;;;16.59;39.84
40155;BME280;25875;48.202;16.334;2023-05-09T12:26:51;99450.03;;;16.52;39.70
40155;BME280;25875;48.202;16.334;2023-05-09T12:29:19;99406.59;;;16.26;40.19
40155;BME280;25875;48.202;16.334;2023-05-09T12:31:46;99441.28;;;16.50;40.05
40155;BME280;25875;48.202;16.334;2023-05-09T12:34:14;99432.88;;;16.44;40.37
40155;BME280;25875;48.202;16.334;2023-05-09T12:36:44;99377.63;;;16.09;40.22
40155;BME280;25875;48.202;16.334;2023-05-09T12:39:15;99330.22;;;15.89;39.92
40155;BME280;25875;48.202;16.334;2023-05-09T12:41:43;99426.78;;;16.42;40.22
40155;BME280;25875;48.202;16.334;2023-05-09T12:44:17;99360.09;;;15.83;39.90
40155;BME280;25875;48.202;16.334;2023-05-09T12:46:58;99418.25;;;16.25;39.78
40155;BME280;25875;48.202;16.334;2023-05-09T12:49:25;99392.56;;;16.00;40.10
40155;BME280;25875;48.202;16.334;2023-05-09T12:51:56;99357.69;;;15.91;40.36
40155;BME280;25875;48.202;16.334;2023-05-09T12:54:24;99396.63;;;16.28;40.13
40155;BME280;25875;48.202;16.334;2023-05-09T12:56:52;99396.16;;;16.34;40.33
40155;BME280;25875;48.202;16.334;2023-05-09T12:59:21;99390.31;;;16.41;39.95